Pagina principale
METAR-TAF:

METAR-TAF

Aeroporti :

Aeroporto di Piacenza-San Damiano

Piacenza, Italia

latitudine: 44-55N, longitudine: 009-44E, altezza: 134 m

Osservazione

Il bollettino è stato emesso 8 ore e 2 minuti fa, alle 17:55 UTC
Vento 2 kt da nord
Temperature 16°C
Umidità 100%
Pressione 1015 hPa
Visibilità: 8000 m
Nuvoloso ad un'altezza di 1600 ft

METAR: LIMS 241755Z 35002KT 8000 BKN016 16/16 Q1015 RMK BKN VIS MIN 8000 WIND THR30 35003KT WHT

Ora: 02:57 (01:57 UTC)


TAF: mancante

Osservazioni e previsioni meteorologiche di più di 4000 aeroporti (messaggi METAR e TAF).

Le stazioni disponibili sono rappresentate dai dischi gialli e rossi sulla carta.

Puntare il mouse per vedere il nome della stazione.

Clicca sopra per visualizzare le osservazioni e previsioni meteorologiche.

Per cambiare la mappa : fare clic sui pulsanti verdi con una croce nera per ingrandire, il pulsante verde con un trattino per diminuire, o sulla freccia verde per le mappe adiacenti.


METAR-TAF: